createdAt,value
2022-12-09T00:01:14.468Z,21.48
2022-12-09T00:03:41.845Z,23.80
2022-12-09T00:06:20.387Z,25.05
2022-12-09T00:08:47.782Z,22.95
2022-12-09T00:11:14.693Z,22.50
2022-12-09T00:13:41.706Z,20.25
2022-12-09T00:16:13.666Z,20.70
2022-12-09T00:18:41.721Z,20.08
2022-12-09T00:21:21.099Z,22.40
2022-12-09T00:23:49.100Z,20.55
2022-12-09T00:26:16.442Z,21.80
2022-12-09T00:28:43.751Z,21.00
2022-12-09T00:31:13.641Z,17.87
2022-12-09T00:33:40.397Z,22.00
2022-12-09T00:36:15.073Z,22.52
2022-12-09T00:38:43.611Z,21.25
2022-12-09T00:41:10.500Z,22.13
2022-12-09T00:43:37.145Z,23.02
2022-12-09T00:46:04.018Z,26.20
2022-12-09T00:48:31.024Z,24.80
2022-12-09T00:50:57.760Z,24.15
2022-12-09T00:53:24.461Z,24.60
2022-12-09T00:55:51.195Z,25.65
2022-12-09T00:58:17.779Z,23.50
2022-12-09T01:00:44.611Z,23.90
2022-12-09T01:03:14.379Z,27.02
2022-12-09T01:05:41.835Z,30.98
2022-12-09T01:08:09.297Z,26.52
2022-12-09T01:10:36.888Z,32.50
2022-12-09T01:13:04.003Z,31.20
2022-12-09T01:15:30.716Z,24.17
2022-12-09T01:17:57.414Z,25.58
2022-12-09T01:20:24.638Z,32.38
2022-12-09T01:22:51.487Z,25.88
2022-12-09T01:25:18.018Z,29.75
2022-12-09T01:27:44.832Z,29.83
2022-12-09T01:30:13.985Z,33.25
2022-12-09T01:32:41.565Z,29.60
2022-12-09T01:35:08.722Z,30.48
2022-12-09T01:37:36.965Z,31.85
2022-12-09T01:40:09.879Z,33.83
2022-12-09T01:45:22.221Z,36.67
2022-12-09T01:47:58.183Z,38.00
2022-12-09T01:50:26.631Z,35.45
2022-12-09T01:52:53.781Z,34.80
2022-12-09T01:55:20.374Z,33.88
2022-12-09T01:57:47.186Z,37.72
2022-12-09T02:00:14.486Z,39.88
2022-12-09T02:02:45.446Z,39.97
2022-12-09T02:05:12.270Z,36.83
2022-12-09T02:07:38.819Z,47.90
2022-12-09T02:10:12.770Z,43.38
2022-12-09T02:13:24.169Z,44.88
2022-12-09T02:15:55.824Z,50.70
2022-12-09T02:18:45.526Z,51.35
2022-12-09T02:21:19.074Z,46.83
2022-12-09T02:26:47.883Z,53.95
2022-12-09T02:29:29.568Z,49.47
2022-12-09T02:32:32.405Z,50.15
2022-12-09T02:35:08.026Z,45.22
2022-12-09T02:37:43.948Z,45.60
2022-12-09T02:40:21.249Z,38.08
2022-12-09T02:42:49.280Z,39.03
2022-12-09T02:45:18.133Z,36.05
2022-12-09T02:47:49.718Z,35.97
2022-12-09T02:50:21.107Z,33.83
2022-12-09T02:52:49.649Z,31.25
2022-12-09T02:55:18.522Z,31.27
2022-12-09T02:57:45.232Z,32.40
2022-12-09T03:00:14.928Z,28.88
2022-12-09T03:02:47.831Z,35.55
2022-12-09T03:05:27.272Z,33.50
2022-12-09T03:08:51.443Z,30.10
2022-12-09T03:11:20.696Z,30.92
2022-12-09T03:14:03.713Z,27.38
2022-12-09T03:16:35.014Z,28.70
2022-12-09T03:19:08.790Z,27.52
2022-12-09T03:21:40.849Z,27.67
2022-12-09T03:24:10.929Z,24.65
2022-12-09T03:26:38.900Z,32.17
2022-12-09T03:29:12.134Z,28.58
2022-12-09T03:31:39.879Z,30.95
2022-12-09T03:34:09.743Z,24.42
2022-12-09T03:36:39.768Z,25.05
2022-12-09T03:39:09.928Z,24.90
2022-12-09T03:41:38.534Z,32.20
2022-12-09T03:44:12.651Z,26.88
2022-12-09T03:46:39.489Z,28.17
2022-12-09T03:49:06.402Z,28.00
2022-12-09T03:51:58.778Z,26.05
2022-12-09T03:54:43.369Z,28.30
2022-12-09T03:57:18.455Z,28.00
2022-12-09T03:59:52.767Z,24.08
2022-12-09T04:02:20.086Z,24.55
2022-12-09T04:04:46.942Z,25.60
2022-12-09T04:07:13.570Z,29.40
2022-12-09T04:09:40.486Z,29.05
2022-12-09T04:12:07.618Z,28.13
2022-12-09T04:14:34.477Z,29.75
2022-12-09T04:17:01.260Z,26.98
2022-12-09T04:19:28.356Z,26.85
2022-12-09T04:21:54.925Z,26.65
2022-12-09T04:24:21.480Z,27.23
2022-12-09T04:26:48.182Z,29.60
2022-12-09T04:29:14.791Z,30.92
2022-12-09T04:31:41.493Z,28.77
2022-12-09T04:34:09.847Z,29.20
2022-12-09T04:36:37.369Z,29.50
2022-12-09T04:39:04.757Z,30.15
2022-12-09T04:41:31.301Z,27.45
2022-12-09T04:43:57.823Z,28.60
2022-12-09T04:46:24.667Z,28.67
2022-12-09T04:48:51.499Z,28.80
2022-12-09T04:51:18.271Z,28.83
2022-12-09T04:53:45.219Z,25.98
2022-12-09T04:56:19.099Z,30.33
2022-12-09T04:58:46.513Z,25.95
2022-12-09T05:01:17.752Z,29.75
2022-12-09T05:03:49.241Z,29.17
2022-12-09T05:06:16.352Z,29.65
2022-12-09T05:08:43.928Z,32.05
2022-12-09T05:11:11.361Z,32.10
2022-12-09T05:13:38.149Z,31.08
2022-12-09T05:16:13.824Z,33.83
2022-12-09T05:18:42.608Z,35.08
2022-12-09T05:21:13.090Z,28.83
2022-12-09T05:23:39.648Z,30.98
2022-12-09T05:26:10.006Z,34.63
2022-12-09T05:28:37.297Z,32.03
2022-12-09T05:31:07.762Z,34.40
2022-12-09T05:33:35.024Z,31.63
2022-12-09T05:36:01.898Z,30.08
2022-12-09T05:38:30.542Z,30.52
2022-12-09T05:41:00.607Z,32.30
2022-12-09T05:43:27.213Z,32.28
2022-12-09T05:45:54.093Z,33.85
2022-12-09T05:48:21.067Z,29.20
2022-12-09T05:51:16.777Z,31.60
2022-12-09T05:53:43.390Z,30.10
2022-12-09T05:56:10.063Z,29.50
2022-12-09T05:58:36.849Z,33.13
2022-12-09T06:01:07.987Z,33.63
2022-12-09T06:03:35.498Z,34.03
2022-12-09T06:06:11.599Z,35.45
2022-12-09T06:08:39.263Z,31.80
2022-12-09T06:11:11.912Z,30.80
2022-12-09T06:13:38.850Z,36.00
2022-12-09T06:16:07.112Z,33.65
2022-12-09T06:18:34.614Z,32.08
2022-12-09T06:21:06.294Z,34.20
2022-12-09T06:23:38.026Z,30.05
2022-12-09T06:26:05.058Z,32.08
2022-12-09T06:28:31.969Z,30.77
2022-12-09T06:30:58.781Z,30.80
2022-12-09T06:33:52.878Z,30.60
2022-12-09T06:36:12.649Z,27.50
2022-12-09T06:38:39.428Z,27.58
2022-12-09T06:41:13.759Z,31.35
2022-12-09T06:43:41.424Z,26.73
2022-12-09T06:46:17.011Z,42.50
2022-12-09T06:48:44.634Z,28.77
2022-12-09T06:51:12.100Z,27.15
2022-12-09T06:53:38.731Z,23.67
2022-12-09T06:56:11.859Z,23.48
2022-12-09T06:58:41.333Z,32.20
2022-12-09T07:01:15.634Z,23.25
2022-12-09T07:03:44.894Z,23.67
2022-12-09T07:06:31.100Z,27.52
2022-12-09T07:09:01.061Z,26.80
2022-12-09T07:11:28.669Z,25.60
2022-12-09T07:13:55.683Z,26.17
2022-12-09T07:16:22.746Z,27.13
2022-12-09T07:18:49.604Z,26.98
2022-12-09T07:21:18.776Z,31.08
2022-12-09T07:23:45.568Z,28.33
2022-12-09T07:26:12.500Z,30.05
2022-12-09T07:28:42.659Z,27.88
2022-12-09T07:31:18.732Z,24.95
2022-12-09T07:33:46.108Z,25.83
2022-12-09T07:36:17.621Z,26.48
2022-12-09T07:38:47.599Z,28.85
2022-12-09T07:41:18.591Z,30.27
2022-12-09T07:43:46.304Z,32.67
2022-12-09T07:46:14.380Z,31.17
2022-12-09T07:48:41.655Z,32.08
2022-12-09T07:51:08.566Z,31.60
2022-12-09T07:53:36.781Z,31.85
2022-12-09T07:56:12.487Z,32.67
2022-12-09T07:58:39.231Z,32.65
2022-12-09T08:01:18.024Z,33.80
2022-12-09T08:03:45.318Z,34.25
2022-12-09T08:06:14.015Z,33.42
2022-12-09T08:08:41.170Z,35.55
2022-12-09T08:11:08.671Z,35.65
2022-12-09T08:13:36.595Z,32.58
2022-12-09T08:16:05.261Z,37.05
2022-12-09T08:18:33.500Z,36.40
2022-12-09T08:21:04.052Z,34.63
2022-12-09T08:23:30.927Z,34.80
2022-12-09T08:25:58.109Z,30.13
2022-12-09T08:28:25.666Z,33.25
2022-12-09T08:30:53.039Z,34.70
2022-12-09T08:33:19.865Z,37.25
2022-12-09T08:35:47.005Z,36.65
2022-12-09T08:38:13.715Z,40.28
2022-12-09T08:40:40.834Z,37.97
2022-12-09T08:43:09.012Z,40.20
2022-12-09T08:45:40.150Z,41.83
2022-12-09T08:48:08.783Z,36.63
2022-12-09T08:50:35.539Z,40.28
2022-12-09T08:53:02.555Z,39.17
2022-12-09T08:55:29.344Z,38.55
2022-12-09T08:57:57.271Z,35.92
2022-12-09T09:00:24.257Z,36.42
2022-12-09T09:02:51.033Z,35.00
2022-12-09T09:05:18.689Z,37.30
2022-12-09T09:07:45.780Z,29.85
2022-12-09T09:10:13.355Z,35.15
2022-12-09T09:12:43.485Z,29.85
2022-12-09T09:15:10.982Z,35.28
2022-12-09T09:17:38.503Z,27.52
2022-12-09T09:20:06.692Z,36.08
2022-12-09T09:22:34.615Z,32.70
2022-12-09T09:25:01.616Z,34.30
2022-12-09T09:27:28.415Z,30.70
2022-12-09T09:29:55.578Z,32.17
2022-12-09T09:32:22.260Z,31.70
2022-12-09T09:34:50.749Z,30.00
2022-12-09T09:37:17.730Z,29.70
2022-12-09T09:39:44.769Z,30.38
2022-12-09T09:42:17.145Z,32.38
2022-12-09T09:44:46.445Z,29.35
2022-12-09T09:47:36.200Z,35.63
2022-12-09T09:50:32.794Z,30.35
2022-12-09T09:53:10.920Z,32.92
2022-12-09T09:55:46.740Z,37.35
2022-12-09T09:58:20.525Z,31.90
2022-12-09T10:00:59.853Z,35.72
2022-12-09T10:03:50.101Z,33.20
2022-12-09T10:06:19.782Z,31.02
2022-12-09T10:08:59.345Z,34.83
2022-12-09T10:11:34.776Z,28.40
2022-12-09T10:14:28.647Z,31.58
2022-12-09T10:19:33.007Z,32.20
2022-12-09T10:22:11.903Z,36.80
2022-12-09T10:24:50.348Z,37.35
2022-12-09T10:27:38.134Z,37.75
2022-12-09T10:30:10.541Z,32.67
2022-12-09T10:32:39.204Z,33.30
2022-12-09T10:35:20.811Z,38.17
2022-12-09T10:37:49.811Z,33.53
2022-12-09T10:40:50.549Z,35.95
2022-12-09T10:43:41.079Z,34.80
2022-12-09T10:46:25.975Z,35.35
2022-12-09T10:48:58.794Z,34.10
2022-12-09T10:51:28.946Z,27.70
2022-12-09T10:54:19.291Z,33.08
2022-12-09T10:57:04.364Z,39.47
2022-12-09T10:59:32.160Z,30.25
2022-12-09T11:02:08.104Z,37.65
2022-12-09T11:04:42.936Z,34.50
2022-12-09T11:07:13.087Z,38.75
2022-12-09T11:09:46.144Z,33.85
2022-12-09T11:12:30.930Z,32.83
2022-12-09T11:15:05.921Z,47.95
2022-12-09T11:17:36.046Z,45.25
2022-12-09T11:20:06.118Z,31.10
2022-12-09T11:22:40.312Z,32.22
2022-12-09T11:25:27.334Z,37.28
2022-12-09T11:28:15.805Z,34.35
2022-12-09T11:31:27.175Z,31.60
2022-12-09T11:33:48.323Z,34.08
2022-12-09T11:36:22.618Z,32.42
2022-12-09T11:38:52.678Z,32.80
2022-12-09T11:41:40.838Z,54.22
2022-12-09T11:44:21.539Z,35.50
2022-12-09T11:46:57.555Z,36.40
2022-12-09T11:49:24.569Z,35.40
2022-12-09T11:52:23.439Z,33.13
2022-12-09T11:55:14.803Z,38.03
2022-12-09T11:58:28.649Z,36.58
2022-12-09T12:01:06.053Z,34.20
2022-12-09T12:03:46.374Z,36.97
2022-12-09T12:06:43.748Z,34.03
2022-12-09T12:09:22.664Z,36.50
2022-12-09T12:12:04.748Z,34.17
2022-12-09T12:14:32.499Z,32.85
2022-12-09T12:17:31.813Z,32.13
2022-12-09T12:19:58.411Z,30.48
2022-12-09T12:23:05.459Z,35.33
2022-12-09T12:25:43.911Z,33.63
2022-12-09T12:28:13.342Z,35.45
2022-12-09T12:30:44.830Z,34.80
2022-12-09T12:34:00.869Z,37.53
2022-12-09T12:36:55.937Z,41.20
2022-12-09T12:39:22.388Z,42.80
2022-12-09T12:42:23.444Z,42.80
2022-12-09T12:45:20.427Z,43.15
2022-12-09T12:48:15.845Z,45.70
2022-12-09T12:51:02.797Z,46.63
2022-12-09T12:53:59.756Z,51.65
2022-12-09T12:57:12.880Z,44.10
2022-12-09T13:00:08.951Z,41.60
2022-12-09T13:02:59.288Z,38.53
2022-12-09T13:05:33.832Z,38.33
2022-12-09T13:08:07.288Z,38.33
2022-12-09T13:10:47.810Z,39.80
2022-12-09T13:13:37.171Z,33.15
2022-12-09T13:16:19.409Z,32.97
2022-12-09T13:18:48.913Z,33.75
2022-12-09T13:21:16.535Z,34.40
2022-12-09T13:24:19.643Z,29.83
2022-12-09T13:27:01.101Z,33.75
2022-12-09T13:29:36.761Z,26.60
2022-12-09T13:32:29.473Z,29.65
2022-12-09T13:35:04.593Z,30.15
2022-12-09T13:37:54.827Z,30.08
2022-12-09T13:40:21.261Z,27.27
2022-12-09T13:42:58.252Z,27.50
2022-12-09T13:45:44.749Z,26.10
2022-12-09T13:48:16.590Z,26.00
2022-12-09T13:50:57.104Z,27.60
2022-12-09T13:53:29.795Z,27.65
2022-12-09T13:56:08.235Z,29.92
2022-12-09T13:59:02.303Z,26.75
2022-12-09T14:04:25.600Z,22.30
2022-12-09T14:07:09.872Z,27.77
2022-12-09T14:09:48.251Z,26.05
2022-12-09T14:12:27.019Z,27.25
2022-12-09T14:14:54.274Z,23.23
2022-12-09T14:17:23.710Z,28.20
2022-12-09T14:20:03.748Z,27.05
2022-12-09T14:22:35.331Z,25.25
2022-12-09T14:25:27.446Z,26.13
2022-12-09T14:28:24.737Z,25.23
2022-12-09T14:31:03.380Z,28.27
2022-12-09T14:33:37.163Z,24.20
2022-12-09T14:36:06.753Z,26.60
2022-12-09T14:42:23.097Z,31.27
2022-12-09T14:45:09.102Z,28.70
2022-12-09T14:47:43.193Z,26.95
2022-12-09T14:50:16.816Z,30.13
2022-12-09T14:52:58.670Z,29.80
2022-12-09T14:55:27.295Z,32.65
2022-12-09T14:57:57.342Z,27.63
2022-12-09T15:00:37.247Z,30.90
2022-12-09T15:03:44.780Z,31.52
2022-12-09T15:06:16.492Z,26.55
2022-12-09T15:08:43.103Z,30.02
2022-12-09T15:11:16.052Z,32.28
2022-12-09T15:13:46.874Z,34.88
2022-12-09T15:16:16.757Z,30.52
2022-12-09T15:18:45.633Z,31.77
2022-12-09T15:21:31.079Z,31.00
2022-12-09T15:23:59.409Z,37.60
2022-12-09T15:26:29.317Z,29.88
2022-12-09T15:28:59.348Z,29.40
2022-12-09T15:31:28.569Z,31.50
2022-12-09T15:34:00.125Z,27.67
2022-12-09T15:36:34.499Z,27.35
2022-12-09T15:39:12.020Z,31.15
2022-12-09T15:42:03.397Z,27.20
2022-12-09T15:44:36.230Z,28.33
2022-12-09T15:47:10.313Z,32.47
2022-12-09T15:49:46.142Z,31.98
2022-12-09T15:52:14.774Z,33.42
2022-12-09T15:54:44.137Z,35.80
2022-12-09T15:57:16.067Z,34.25
2022-12-09T15:59:50.945Z,31.42
2022-12-09T16:02:25.480Z,41.45
2022-12-09T16:04:55.052Z,37.83
2022-12-09T16:07:23.105Z,38.75
2022-12-09T16:10:08.810Z,37.50
2022-12-09T16:12:36.469Z,38.35
2022-12-09T16:15:05.764Z,38.85
2022-12-09T16:17:36.953Z,38.05
2022-12-09T16:20:28.641Z,42.85
2022-12-09T16:22:55.130Z,38.20
2022-12-09T16:25:27.202Z,39.13
2022-12-09T16:28:03.178Z,48.13
2022-12-09T16:30:32.530Z,44.45
2022-12-09T16:33:01.368Z,41.38
2022-12-09T16:35:40.207Z,39.92
2022-12-09T16:38:09.641Z,38.13
2022-12-09T16:40:58.425Z,40.60
2022-12-09T16:43:26.251Z,36.60
2022-12-09T16:45:55.645Z,40.13
2022-12-09T16:48:23.715Z,34.97
2022-12-09T16:51:17.606Z,33.08
2022-12-09T16:53:50.008Z,29.65
2022-12-09T16:56:22.458Z,33.33
2022-12-09T16:58:49.078Z,32.20
2022-12-09T17:01:18.023Z,31.60
2022-12-09T17:03:49.937Z,34.55
2022-12-09T17:06:18.411Z,33.15
2022-12-09T17:08:45.283Z,37.60
2022-12-09T17:11:12.179Z,33.42
2022-12-09T17:13:39.308Z,36.67
2022-12-09T17:16:06.971Z,37.05
2022-12-09T17:18:33.990Z,34.33
2022-12-09T17:21:04.559Z,33.90
2022-12-09T17:23:37.727Z,34.42
2022-12-09T17:26:08.721Z,36.20
2022-12-09T17:28:35.767Z,34.35
2022-12-09T17:31:06.403Z,33.03
2022-12-09T17:33:32.832Z,32.40
2022-12-09T17:35:59.658Z,32.47
2022-12-09T17:38:29.442Z,34.90
2022-12-09T17:40:57.300Z,33.25
2022-12-09T17:43:23.817Z,36.92
2022-12-09T17:45:50.275Z,35.90
2022-12-09T17:48:16.850Z,35.38
2022-12-09T17:50:43.334Z,34.83
2022-12-09T17:53:09.821Z,33.20
2022-12-09T17:55:39.049Z,31.02
2022-12-09T17:58:05.686Z,29.95
2022-12-09T18:00:33.705Z,33.53
2022-12-09T18:03:00.666Z,34.80
2022-12-09T18:05:27.107Z,37.45
2022-12-09T18:07:53.667Z,34.80
2022-12-09T18:10:20.250Z,36.78
2022-12-09T18:12:46.723Z,33.28
2022-12-09T18:15:13.626Z,33.20
2022-12-09T18:17:40.158Z,35.65
2022-12-09T18:20:07.507Z,37.38
2022-12-09T18:22:34.387Z,33.92
2022-12-09T18:25:01.208Z,35.75
2022-12-09T18:27:27.650Z,38.88
2022-12-09T18:29:54.193Z,37.63
2022-12-09T18:32:20.796Z,33.42
2022-12-09T18:34:47.584Z,40.15
2022-12-09T18:37:14.058Z,37.95
2022-12-09T18:39:41.228Z,36.83
2022-12-09T18:42:08.639Z,39.80
2022-12-09T18:44:35.113Z,36.10
2022-12-09T18:47:01.630Z,35.38
2022-12-09T18:49:28.521Z,32.95
2022-12-09T18:51:55.811Z,29.95
2022-12-09T18:54:28.608Z,38.10
2022-12-09T18:56:56.144Z,34.25
2022-12-09T18:59:25.446Z,33.97
2022-12-09T19:01:52.654Z,37.17
2022-12-09T19:04:25.412Z,35.58
2022-12-09T19:06:57.033Z,33.30
2022-12-09T19:09:32.278Z,31.45
2022-12-09T19:12:16.575Z,36.38
2022-12-09T19:14:46.394Z,32.95
2022-12-09T19:17:12.879Z,33.90
2022-12-09T19:19:39.629Z,35.67
2022-12-09T19:22:08.216Z,31.20
2022-12-09T19:24:38.452Z,38.10
2022-12-09T19:27:07.877Z,32.40
2022-12-09T19:29:34.621Z,29.13
2022-12-09T19:32:01.212Z,36.50
2022-12-09T19:34:29.733Z,28.55
2022-12-09T19:36:58.821Z,52.17
2022-12-09T19:39:31.367Z,36.08
2022-12-09T19:41:59.149Z,34.03
2022-12-09T19:44:52.347Z,33.30
2022-12-09T19:47:13.563Z,29.35
2022-12-09T19:49:42.104Z,30.00
2022-12-09T19:52:08.678Z,27.67
2022-12-09T19:54:35.154Z,31.50
2022-12-09T19:57:01.641Z,33.45
2022-12-09T19:59:28.524Z,37.28
2022-12-09T20:01:55.602Z,35.80
2022-12-09T20:07:10.555Z,31.25
2022-12-09T20:09:37.463Z,38.15
2022-12-09T20:12:04.236Z,35.28
2022-12-09T20:14:30.681Z,35.13
2022-12-09T20:16:57.085Z,41.13
2022-12-09T20:19:24.667Z,47.35
2022-12-09T20:21:51.107Z,39.35
2022-12-09T20:24:17.533Z,40.40
2022-12-09T20:26:44.841Z,39.85
2022-12-09T20:29:11.767Z,38.50
2022-12-09T20:31:39.277Z,36.08
2022-12-09T20:34:13.035Z,36.05
2022-12-09T20:36:41.710Z,35.28
2022-12-09T20:39:14.897Z,32.40
2022-12-09T20:41:42.376Z,39.00
2022-12-09T20:44:10.102Z,34.78
2022-12-09T20:46:38.279Z,34.53
2022-12-09T20:49:04.763Z,41.70
2022-12-09T20:51:34.346Z,38.80
2022-12-09T20:54:01.151Z,35.78
2022-12-09T20:56:29.768Z,43.53
2022-12-09T20:58:57.325Z,45.28
2022-12-09T21:01:27.847Z,38.30
2022-12-09T21:03:55.732Z,37.35
2022-12-09T21:06:24.886Z,38.35
2022-12-09T21:08:53.491Z,37.15
2022-12-09T21:11:22.254Z,37.42
2022-12-09T21:13:54.281Z,41.13
2022-12-09T21:16:25.398Z,32.92
2022-12-09T21:18:57.913Z,32.08
2022-12-09T21:21:26.614Z,36.17
2022-12-09T21:23:54.592Z,32.65
2022-12-09T21:26:23.804Z,33.80
2022-12-09T21:28:52.015Z,35.17
2022-12-09T21:31:19.999Z,32.13
2022-12-09T21:33:48.277Z,31.00
2022-12-09T21:36:21.746Z,35.35
2022-12-09T21:38:48.300Z,32.53
2022-12-09T21:41:17.779Z,32.05
2022-12-09T21:43:45.269Z,37.10
2022-12-09T21:46:15.399Z,36.60
2022-12-09T21:48:42.172Z,37.72
2022-12-09T21:51:10.931Z,36.33
2022-12-09T21:53:37.646Z,34.65
2022-12-09T21:56:11.131Z,31.65
2022-12-09T22:01:13.411Z,32.35
2022-12-09T22:03:40.215Z,30.42
2022-12-09T22:06:07.467Z,34.05
2022-12-09T22:08:35.212Z,33.20
2022-12-09T22:11:06.880Z,33.25
2022-12-09T22:13:39.040Z,34.50
2022-12-09T22:16:08.239Z,24.58
2022-12-09T22:18:34.932Z,36.92
2022-12-09T22:23:54.730Z,37.22
2022-12-09T22:26:22.037Z,34.75
2022-12-09T22:28:49.057Z,34.90
2022-12-09T22:31:17.607Z,36.55
2022-12-09T22:33:45.076Z,35.75
2022-12-09T22:36:12.959Z,40.30
2022-12-09T22:38:41.261Z,33.55
2022-12-09T22:41:14.342Z,34.83
2022-12-09T22:43:41.940Z,41.92
2022-12-09T22:46:30.163Z,39.83
2022-12-09T22:48:59.749Z,32.83
2022-12-09T22:51:28.947Z,43.83
2022-12-09T22:53:56.770Z,39.00
2022-12-09T22:56:24.013Z,38.85
2022-12-09T22:58:50.863Z,44.42
2022-12-09T23:01:23.477Z,44.58
2022-12-09T23:03:50.050Z,41.60
2022-12-09T23:06:16.543Z,41.35
2022-12-09T23:08:44.721Z,43.42
2022-12-09T23:11:14.085Z,39.40
2022-12-09T23:13:41.408Z,40.47
2022-12-09T23:16:11.740Z,41.38
2022-12-09T23:18:38.429Z,40.72
2022-12-09T23:21:13.086Z,46.63
2022-12-09T23:23:40.324Z,43.38
2022-12-09T23:26:09.442Z,46.88
2022-12-09T23:28:44.300Z,50.72
2022-12-09T23:31:13.552Z,45.47
2022-12-09T23:33:42.093Z,43.90
2022-12-09T23:36:16.111Z,47.92
2022-12-09T23:38:43.044Z,49.42
2022-12-09T23:41:11.467Z,47.45
2022-12-09T23:43:38.871Z,48.72
2022-12-09T23:46:14.455Z,48.63
2022-12-09T23:48:42.777Z,43.97
2022-12-09T23:51:13.672Z,43.40
2022-12-09T23:53:41.875Z,43.05
2022-12-09T23:56:11.271Z,42.72
2022-12-09T23:58:38.018Z,45.92
